logo
Search for airport 
image banner adimage banner adimage banner ad
image banner ad

MRIS - Las Islas

Located in Sarapiqui, Costa Rica

ICAO - MRIS, IATA -

Data provided by Airmate  

General information

Coordinates: N10°33'27" W83°58'18"
Elevation is 98 feet MSL.
 
View others Airports in Heredia

Operational data

Special qualification required
Current time UTC:
Current local time:
Weather at : MROC - Juan Santamaria Intl ( 68 km )
METAR: MROC 141600Z 28002KT 9999 BCFG FEW045 OVC180 22/20 A3009 NOSIG
View NOTAMs / SUP AIP / TFR affecting this airport [VIEW]
Communications frequencies: [VIEW]

Runways:

RWY identifierQFULength (ft)Width (ft)SurfaceLDA (ft)
0900UNK
2700UNK

Airport contact information

Address: Sarapiqui Costa Rica

Satellite view of MRIS